sensor_id;sensor_type;location;lat;lon;timestamp;P1;durP1;ratioP1;P2;durP2;ratioP2
25301;SDS011;13243;50.888;4.724;2022-12-18T00:00:20;40.45;;;16.60;;
25301;SDS011;13243;50.888;4.724;2022-12-18T00:05:21;52.30;;;18.23;;
25301;SDS011;13243;50.888;4.724;2022-12-18T00:10:23;46.92;;;16.45;;
25301;SDS011;13243;50.888;4.724;2022-12-18T00:15:25;46.95;;;17.45;;
25301;SDS011;13243;50.888;4.724;2022-12-18T00:20:27;41.88;;;16.88;;
25301;SDS011;13243;50.888;4.724;2022-12-18T00:25:29;43.17;;;17.58;;
25301;SDS011;13243;50.888;4.724;2022-12-18T00:30:30;43.45;;;18.13;;
25301;SDS011;13243;50.888;4.724;2022-12-18T00:35:32;45.13;;;15.98;;
25301;SDS011;13243;50.888;4.724;2022-12-18T00:40:34;46.17;;;16.67;;
25301;SDS011;13243;50.888;4.724;2022-12-18T00:45:36;40.92;;;17.13;;
25301;SDS011;13243;50.888;4.724;2022-12-18T00:50:38;39.75;;;17.25;;
25301;SDS011;13243;50.888;4.724;2022-12-18T00:55:40;36.00;;;13.60;;
25301;SDS011;13243;50.888;4.724;2022-12-18T01:00:42;40.17;;;16.75;;
25301;SDS011;13243;50.888;4.724;2022-12-18T01:05:44;37.00;;;15.75;;
25301;SDS011;13243;50.888;4.724;2022-12-18T01:10:46;44.10;;;16.77;;
25301;SDS011;13243;50.888;4.724;2022-12-18T01:15:49;50.42;;;16.65;;
25301;SDS011;13243;50.888;4.724;2022-12-18T01:20:51;44.45;;;16.35;;
25301;SDS011;13243;50.888;4.724;2022-12-18T01:25:53;46.55;;;16.75;;
25301;SDS011;13243;50.888;4.724;2022-12-18T01:30:55;46.13;;;18.25;;
25301;SDS011;13243;50.888;4.724;2022-12-18T01:35:56;41.85;;;15.75;;
25301;SDS011;13243;50.888;4.724;2022-12-18T01:40:59;38.15;;;15.65;;
25301;SDS011;13243;50.888;4.724;2022-12-18T01:46:02;38.28;;;14.85;;
25301;SDS011;13243;50.888;4.724;2022-12-18T01:51:04;36.15;;;15.38;;
25301;SDS011;13243;50.888;4.724;2022-12-18T01:56:07;36.92;;;13.82;;
25301;SDS011;13243;50.888;4.724;2022-12-18T02:01:13;36.22;;;13.52;;
25301;SDS011;13243;50.888;4.724;2022-12-18T02:06:16;30.38;;;11.88;;
25301;SDS011;13243;50.888;4.724;2022-12-18T02:11:57;31.30;;;11.75;;
25301;SDS011;13243;50.888;4.724;2022-12-18T02:17:04;23.60;;;9.15;;
25301;SDS011;13243;50.888;4.724;2022-12-18T02:27:52;26.42;;;12.13;;
25301;SDS011;13243;50.888;4.724;2022-12-18T02:32:55;35.78;;;14.30;;
25301;SDS011;13243;50.888;4.724;2022-12-18T02:38:00;30.13;;;13.73;;
25301;SDS011;13243;50.888;4.724;2022-12-18T02:43:11;34.38;;;14.18;;
25301;SDS011;13243;50.888;4.724;2022-12-18T02:48:22;39.28;;;14.43;;
25301;SDS011;13243;50.888;4.724;2022-12-18T03:04:09;36.42;;;13.73;;
25301;SDS011;13243;50.888;4.724;2022-12-18T03:09:34;33.80;;;12.57;;
25301;SDS011;13243;50.888;4.724;2022-12-18T03:14:44;34.03;;;12.20;;
25301;SDS011;13243;50.888;4.724;2022-12-18T03:19:51;30.47;;;10.60;;
25301;SDS011;13243;50.888;4.724;2022-12-18T03:24:57;34.90;;;13.68;;
25301;SDS011;13243;50.888;4.724;2022-12-18T03:30:05;33.25;;;13.30;;
25301;SDS011;13243;50.888;4.724;2022-12-18T03:35:10;36.00;;;14.07;;
25301;SDS011;13243;50.888;4.724;2022-12-18T03:40:18;39.20;;;13.88;;
25301;SDS011;13243;50.888;4.724;2022-12-18T03:45:28;44.45;;;15.70;;
25301;SDS011;13243;50.888;4.724;2022-12-18T03:55:43;36.85;;;13.57;;
25301;SDS011;13243;50.888;4.724;2022-12-18T04:00:46;38.90;;;14.68;;
25301;SDS011;13243;50.888;4.724;2022-12-18T04:05:51;36.03;;;13.77;;
25301;SDS011;13243;50.888;4.724;2022-12-18T04:10:55;32.30;;;12.73;;
25301;SDS011;13243;50.888;4.724;2022-12-18T04:15:57;30.33;;;12.10;;
25301;SDS011;13243;50.888;4.724;2022-12-18T04:20:59;33.83;;;13.70;;
25301;SDS011;13243;50.888;4.724;2022-12-18T04:26:01;32.58;;;12.55;;
25301;SDS011;13243;50.888;4.724;2022-12-18T04:31:03;38.65;;;13.63;;
25301;SDS011;13243;50.888;4.724;2022-12-18T04:36:05;28.80;;;11.38;;
25301;SDS011;13243;50.888;4.724;2022-12-18T04:41:07;30.02;;;12.20;;
25301;SDS011;13243;50.888;4.724;2022-12-18T04:46:09;31.02;;;11.63;;
25301;SDS011;13243;50.888;4.724;2022-12-18T04:51:11;26.20;;;11.05;;
25301;SDS011;13243;50.888;4.724;2022-12-18T04:56:13;27.77;;;11.73;;
25301;SDS011;13243;50.888;4.724;2022-12-18T05:01:17;33.55;;;11.73;;
25301;SDS011;13243;50.888;4.724;2022-12-18T05:06:19;31.05;;;11.98;;
25301;SDS011;13243;50.888;4.724;2022-12-18T05:11:21;26.55;;;11.40;;
25301;SDS011;13243;50.888;4.724;2022-12-18T05:16:23;35.22;;;12.52;;
25301;SDS011;13243;50.888;4.724;2022-12-18T05:21:25;33.45;;;12.77;;
25301;SDS011;13243;50.888;4.724;2022-12-18T05:26:27;34.97;;;12.90;;
25301;SDS011;13243;50.888;4.724;2022-12-18T05:31:29;34.17;;;12.73;;
25301;SDS011;13243;50.888;4.724;2022-12-18T05:36:37;36.20;;;13.15;;
25301;SDS011;13243;50.888;4.724;2022-12-18T05:41:39;31.05;;;12.90;;
25301;SDS011;13243;50.888;4.724;2022-12-18T05:46:41;28.02;;;11.07;;
25301;SDS011;13243;50.888;4.724;2022-12-18T05:51:43;30.98;;;11.60;;
25301;SDS011;13243;50.888;4.724;2022-12-18T05:56:45;32.22;;;12.60;;
25301;SDS011;13243;50.888;4.724;2022-12-18T06:01:49;32.42;;;13.15;;
25301;SDS011;13243;50.888;4.724;2022-12-18T06:06:51;29.88;;;12.85;;
25301;SDS011;13243;50.888;4.724;2022-12-18T06:11:53;30.98;;;11.55;;
25301;SDS011;13243;50.888;4.724;2022-12-18T06:16:54;29.60;;;12.57;;
25301;SDS011;13243;50.888;4.724;2022-12-18T06:21:56;26.30;;;10.85;;
25301;SDS011;13243;50.888;4.724;2022-12-18T06:27:00;27.77;;;10.82;;
25301;SDS011;13243;50.888;4.724;2022-12-18T06:32:01;32.55;;;12.43;;
25301;SDS011;13243;50.888;4.724;2022-12-18T06:37:03;34.97;;;12.32;;
25301;SDS011;13243;50.888;4.724;2022-12-18T06:42:05;31.30;;;13.27;;
25301;SDS011;13243;50.888;4.724;2022-12-18T06:47:07;26.58;;;11.90;;
25301;SDS011;13243;50.888;4.724;2022-12-18T06:52:09;37.00;;;12.38;;
25301;SDS011;13243;50.888;4.724;2022-12-18T06:57:11;27.35;;;12.68;;
25301;SDS011;13243;50.888;4.724;2022-12-18T07:02:13;31.25;;;12.20;;
25301;SDS011;13243;50.888;4.724;2022-12-18T07:07:15;30.25;;;12.00;;
25301;SDS011;13243;50.888;4.724;2022-12-18T07:12:17;30.65;;;12.57;;
25301;SDS011;13243;50.888;4.724;2022-12-18T07:17:19;29.80;;;11.48;;
25301;SDS011;13243;50.888;4.724;2022-12-18T07:22:21;23.95;;;10.48;;
25301;SDS011;13243;50.888;4.724;2022-12-18T07:27:23;28.42;;;10.98;;
25301;SDS011;13243;50.888;4.724;2022-12-18T07:32:25;27.65;;;11.07;;
25301;SDS011;13243;50.888;4.724;2022-12-18T07:37:26;32.38;;;12.77;;
25301;SDS011;13243;50.888;4.724;2022-12-18T07:42:29;30.90;;;11.32;;
25301;SDS011;13243;50.888;4.724;2022-12-18T07:47:34;27.88;;;10.95;;
25301;SDS011;13243;50.888;4.724;2022-12-18T07:52:37;28.70;;;12.40;;
25301;SDS011;13243;50.888;4.724;2022-12-18T07:57:39;27.55;;;11.32;;
25301;SDS011;13243;50.888;4.724;2022-12-18T08:03:00;32.33;;;11.55;;
25301;SDS011;13243;50.888;4.724;2022-12-18T08:08:03;34.80;;;11.57;;
25301;SDS011;13243;50.888;4.724;2022-12-18T08:13:04;32.47;;;9.77;;
25301;SDS011;13243;50.888;4.724;2022-12-18T08:18:07;28.23;;;11.27;;
25301;SDS011;13243;50.888;4.724;2022-12-18T08:23:14;30.33;;;10.65;;
25301;SDS011;13243;50.888;4.724;2022-12-18T08:28:16;24.00;;;10.02;;
25301;SDS011;13243;50.888;4.724;2022-12-18T08:33:18;31.20;;;11.88;;
25301;SDS011;13243;50.888;4.724;2022-12-18T08:38:19;26.35;;;12.02;;
25301;SDS011;13243;50.888;4.724;2022-12-18T08:43:22;31.60;;;11.02;;
25301;SDS011;13243;50.888;4.724;2022-12-18T08:48:42;27.85;;;9.82;;
25301;SDS011;13243;50.888;4.724;2022-12-18T08:53:45;23.67;;;9.88;;
25301;SDS011;13243;50.888;4.724;2022-12-18T08:58:47;34.35;;;11.10;;
25301;SDS011;13243;50.888;4.724;2022-12-18T09:03:51;25.45;;;9.38;;
25301;SDS011;13243;50.888;4.724;2022-12-18T09:08:53;25.58;;;9.80;;
25301;SDS011;13243;50.888;4.724;2022-12-18T09:13:55;26.17;;;10.63;;
25301;SDS011;13243;50.888;4.724;2022-12-18T09:18:58;24.38;;;9.10;;
25301;SDS011;13243;50.888;4.724;2022-12-18T09:24:01;22.15;;;8.80;;
25301;SDS011;13243;50.888;4.724;2022-12-18T09:29:03;24.58;;;10.05;;
25301;SDS011;13243;50.888;4.724;2022-12-18T09:34:05;22.27;;;8.95;;
25301;SDS011;13243;50.888;4.724;2022-12-18T09:39:07;62.22;;;23.77;;
25301;SDS011;13243;50.888;4.724;2022-12-18T09:44:29;25.63;;;10.98;;
25301;SDS011;13243;50.888;4.724;2022-12-18T09:49:47;25.90;;;10.15;;
25301;SDS011;13243;50.888;4.724;2022-12-18T09:54:57;22.08;;;9.38;;
25301;SDS011;13243;50.888;4.724;2022-12-18T10:00:09;25.10;;;9.23;;
25301;SDS011;13243;50.888;4.724;2022-12-18T10:05:37;18.27;;;8.77;;
25301;SDS011;13243;50.888;4.724;2022-12-18T10:11:11;29.33;;;9.73;;
25301;SDS011;13243;50.888;4.724;2022-12-18T10:26:55;59.83;;;21.77;;
25301;SDS011;13243;50.888;4.724;2022-12-18T10:32:16;32.08;;;10.98;;
25301;SDS011;13243;50.888;4.724;2022-12-18T10:37:29;23.20;;;11.43;;
25301;SDS011;13243;50.888;4.724;2022-12-18T10:42:31;22.65;;;10.23;;
25301;SDS011;13243;50.888;4.724;2022-12-18T10:47:33;22.98;;;10.35;;
25301;SDS011;13243;50.888;4.724;2022-12-18T10:52:35;25.15;;;10.75;;
25301;SDS011;13243;50.888;4.724;2022-12-18T10:57:45;15.23;;;7.93;;
25301;SDS011;13243;50.888;4.724;2022-12-18T11:02:47;22.73;;;10.50;;
25301;SDS011;13243;50.888;4.724;2022-12-18T11:07:49;23.83;;;10.90;;
25301;SDS011;13243;50.888;4.724;2022-12-18T11:12:52;23.50;;;11.25;;
25301;SDS011;13243;50.888;4.724;2022-12-18T11:17:54;23.98;;;11.23;;
25301;SDS011;13243;50.888;4.724;2022-12-18T11:23:00;26.92;;;11.13;;
25301;SDS011;13243;50.888;4.724;2022-12-18T11:28:06;23.95;;;11.35;;
25301;SDS011;13243;50.888;4.724;2022-12-18T11:33:39;24.45;;;11.10;;
25301;SDS011;13243;50.888;4.724;2022-12-18T11:39:07;29.02;;;11.45;;
25301;SDS011;13243;50.888;4.724;2022-12-18T11:44:21;29.10;;;13.38;;
25301;SDS011;13243;50.888;4.724;2022-12-18T11:49:34;29.70;;;14.45;;
25301;SDS011;13243;50.888;4.724;2022-12-18T11:54:37;30.60;;;14.38;;
25301;SDS011;13243;50.888;4.724;2022-12-18T11:59:54;29.02;;;13.93;;
25301;SDS011;13243;50.888;4.724;2022-12-18T12:26:10;33.85;;;13.45;;
25301;SDS011;13243;50.888;4.724;2022-12-18T12:41:50;27.83;;;12.90;;
25301;SDS011;13243;50.888;4.724;2022-12-18T12:47:21;33.35;;;16.00;;
25301;SDS011;13243;50.888;4.724;2022-12-18T12:57:34;28.98;;;13.50;;
25301;SDS011;13243;50.888;4.724;2022-12-18T13:02:48;38.63;;;14.15;;
25301;SDS011;13243;50.888;4.724;2022-12-18T13:08:22;27.75;;;12.80;;
25301;SDS011;13243;50.888;4.724;2022-12-18T13:13:38;28.42;;;13.02;;
25301;SDS011;13243;50.888;4.724;2022-12-18T13:18:51;31.17;;;12.35;;
25301;SDS011;13243;50.888;4.724;2022-12-18T13:23:55;50.80;;;20.60;;
25301;SDS011;13243;50.888;4.724;2022-12-18T13:29:39;33.55;;;14.00;;
25301;SDS011;13243;50.888;4.724;2022-12-18T13:34:43;28.10;;;11.57;;
25301;SDS011;13243;50.888;4.724;2022-12-18T13:39:45;28.83;;;12.52;;
25301;SDS011;13243;50.888;4.724;2022-12-18T13:44:47;31.25;;;13.75;;
25301;SDS011;13243;50.888;4.724;2022-12-18T13:49:49;28.77;;;11.48;;
25301;SDS011;13243;50.888;4.724;2022-12-18T13:54:55;29.10;;;11.88;;
25301;SDS011;13243;50.888;4.724;2022-12-18T14:00:23;29.07;;;10.97;;
25301;SDS011;13243;50.888;4.724;2022-12-18T14:05:36;26.67;;;12.18;;
25301;SDS011;13243;50.888;4.724;2022-12-18T14:10:43;33.00;;;13.68;;
25301;SDS011;13243;50.888;4.724;2022-12-18T14:15:50;30.70;;;13.80;;
25301;SDS011;13243;50.888;4.724;2022-12-18T14:20:54;29.42;;;13.02;;
25301;SDS011;13243;50.888;4.724;2022-12-18T14:25:58;35.47;;;14.65;;
25301;SDS011;13243;50.888;4.724;2022-12-18T14:31:15;38.15;;;15.73;;
25301;SDS011;13243;50.888;4.724;2022-12-18T14:36:26;36.72;;;15.50;;
25301;SDS011;13243;50.888;4.724;2022-12-18T14:41:28;29.50;;;12.88;;
25301;SDS011;13243;50.888;4.724;2022-12-18T14:46:34;38.90;;;15.10;;
25301;SDS011;13243;50.888;4.724;2022-12-18T14:51:38;29.40;;;13.65;;
25301;SDS011;13243;50.888;4.724;2022-12-18T14:56:44;31.35;;;14.38;;
25301;SDS011;13243;50.888;4.724;2022-12-18T15:07:23;31.92;;;13.15;;
25301;SDS011;13243;50.888;4.724;2022-12-18T15:12:32;31.58;;;14.43;;
25301;SDS011;13243;50.888;4.724;2022-12-18T15:17:38;38.67;;;14.35;;
25301;SDS011;13243;50.888;4.724;2022-12-18T15:22:40;39.92;;;16.52;;
25301;SDS011;13243;50.888;4.724;2022-12-18T15:27:44;43.75;;;16.10;;
25301;SDS011;13243;50.888;4.724;2022-12-18T15:32:48;33.83;;;15.43;;
25301;SDS011;13243;50.888;4.724;2022-12-18T15:37:52;37.70;;;14.90;;
25301;SDS011;13243;50.888;4.724;2022-12-18T15:42:54;35.40;;;15.18;;
25301;SDS011;13243;50.888;4.724;2022-12-18T15:48:20;35.88;;;16.15;;
25301;SDS011;13243;50.888;4.724;2022-12-18T15:53:23;39.55;;;15.02;;
25301;SDS011;13243;50.888;4.724;2022-12-18T15:58:27;38.90;;;16.00;;
25301;SDS011;13243;50.888;4.724;2022-12-18T16:03:29;29.20;;;13.93;;
25301;SDS011;13243;50.888;4.724;2022-12-18T16:08:31;36.08;;;15.27;;
25301;SDS011;13243;50.888;4.724;2022-12-18T16:13:33;37.33;;;15.50;;
25301;SDS011;13243;50.888;4.724;2022-12-18T16:18:35;42.47;;;16.38;;
25301;SDS011;13243;50.888;4.724;2022-12-18T16:23:37;40.47;;;15.77;;
25301;SDS011;13243;50.888;4.724;2022-12-18T16:28:39;38.45;;;15.98;;
25301;SDS011;13243;50.888;4.724;2022-12-18T16:33:48;43.95;;;16.55;;
25301;SDS011;13243;50.888;4.724;2022-12-18T16:38:53;38.30;;;16.00;;
25301;SDS011;13243;50.888;4.724;2022-12-18T16:43:58;41.45;;;15.50;;
25301;SDS011;13243;50.888;4.724;2022-12-18T16:49:00;43.58;;;15.95;;
25301;SDS011;13243;50.888;4.724;2022-12-18T16:54:02;39.47;;;16.13;;
25301;SDS011;13243;50.888;4.724;2022-12-18T16:59:11;40.92;;;14.52;;
25301;SDS011;13243;50.888;4.724;2022-12-18T17:04:13;40.00;;;16.00;;
25301;SDS011;13243;50.888;4.724;2022-12-18T17:09:17;37.17;;;14.98;;
25301;SDS011;13243;50.888;4.724;2022-12-18T17:14:29;35.92;;;15.43;;
25301;SDS011;13243;50.888;4.724;2022-12-18T17:19:32;37.63;;;15.48;;
25301;SDS011;13243;50.888;4.724;2022-12-18T17:24:34;35.03;;;16.23;;
25301;SDS011;13243;50.888;4.724;2022-12-18T17:29:36;39.75;;;15.75;;
25301;SDS011;13243;50.888;4.724;2022-12-18T17:34:46;28.27;;;11.65;;
25301;SDS011;13243;50.888;4.724;2022-12-18T17:39:49;37.20;;;14.93;;
25301;SDS011;13243;50.888;4.724;2022-12-18T17:44:50;41.10;;;16.63;;
25301;SDS011;13243;50.888;4.724;2022-12-18T17:49:52;34.60;;;15.25;;
25301;SDS011;13243;50.888;4.724;2022-12-18T17:54:55;42.15;;;15.55;;
25301;SDS011;13243;50.888;4.724;2022-12-18T17:59:57;39.63;;;14.68;;
25301;SDS011;13243;50.888;4.724;2022-12-18T18:04:59;40.08;;;15.40;;
25301;SDS011;13243;50.888;4.724;2022-12-18T18:10:01;40.97;;;16.08;;
25301;SDS011;13243;50.888;4.724;2022-12-18T18:15:02;39.95;;;16.05;;
25301;SDS011;13243;50.888;4.724;2022-12-18T18:20:05;39.25;;;17.15;;
25301;SDS011;13243;50.888;4.724;2022-12-18T18:25:08;41.70;;;16.08;;
25301;SDS011;13243;50.888;4.724;2022-12-18T18:30:10;41.67;;;16.50;;
25301;SDS011;13243;50.888;4.724;2022-12-18T18:35:12;40.05;;;14.70;;
25301;SDS011;13243;50.888;4.724;2022-12-18T18:40:34;42.00;;;16.40;;
25301;SDS011;13243;50.888;4.724;2022-12-18T18:45:36;49.75;;;16.50;;
25301;SDS011;13243;50.888;4.724;2022-12-18T18:50:39;40.25;;;17.30;;
25301;SDS011;13243;50.888;4.724;2022-12-18T18:55:44;47.33;;;16.60;;
25301;SDS011;13243;50.888;4.724;2022-12-18T19:01:01;41.92;;;16.73;;
25301;SDS011;13243;50.888;4.724;2022-12-18T19:06:09;41.35;;;15.55;;
25301;SDS011;13243;50.888;4.724;2022-12-18T19:11:14;46.75;;;16.58;;
25301;SDS011;13243;50.888;4.724;2022-12-18T19:16:37;41.55;;;15.43;;
25301;SDS011;13243;50.888;4.724;2022-12-18T19:21:39;42.80;;;16.63;;
25301;SDS011;13243;50.888;4.724;2022-12-18T19:26:41;37.35;;;15.45;;
25301;SDS011;13243;50.888;4.724;2022-12-18T19:31:43;37.72;;;16.15;;
25301;SDS011;13243;50.888;4.724;2022-12-18T19:36:46;39.45;;;15.77;;
25301;SDS011;13243;50.888;4.724;2022-12-18T19:41:48;42.95;;;16.05;;
25301;SDS011;13243;50.888;4.724;2022-12-18T19:46:50;47.72;;;19.30;;
25301;SDS011;13243;50.888;4.724;2022-12-18T19:51:52;49.60;;;16.85;;
25301;SDS011;13243;50.888;4.724;2022-12-18T19:56:53;37.90;;;15.38;;
25301;SDS011;13243;50.888;4.724;2022-12-18T20:01:55;42.13;;;16.75;;
25301;SDS011;13243;50.888;4.724;2022-12-18T20:06:57;45.42;;;17.42;;
25301;SDS011;13243;50.888;4.724;2022-12-18T20:11:59;46.40;;;17.23;;
25301;SDS011;13243;50.888;4.724;2022-12-18T20:17:01;39.78;;;14.95;;
25301;SDS011;13243;50.888;4.724;2022-12-18T20:22:03;44.45;;;16.75;;
25301;SDS011;13243;50.888;4.724;2022-12-18T20:27:05;45.03;;;16.33;;
25301;SDS011;13243;50.888;4.724;2022-12-18T20:32:15;32.08;;;12.60;;
25301;SDS011;13243;50.888;4.724;2022-12-18T20:37:17;38.00;;;15.68;;
25301;SDS011;13243;50.888;4.724;2022-12-18T20:42:19;40.38;;;15.93;;
25301;SDS011;13243;50.888;4.724;2022-12-18T20:47:21;40.75;;;17.17;;
25301;SDS011;13243;50.888;4.724;2022-12-18T20:52:23;35.33;;;14.82;;
25301;SDS011;13243;50.888;4.724;2022-12-18T20:57:25;46.33;;;15.73;;
25301;SDS011;13243;50.888;4.724;2022-12-18T21:02:27;42.63;;;15.50;;
25301;SDS011;13243;50.888;4.724;2022-12-18T21:07:29;41.28;;;16.35;;
25301;SDS011;13243;50.888;4.724;2022-12-18T21:12:31;42.60;;;15.45;;
25301;SDS011;13243;50.888;4.724;2022-12-18T21:17:51;29.40;;;12.15;;
25301;SDS011;13243;50.888;4.724;2022-12-18T21:22:52;41.78;;;14.70;;
25301;SDS011;13243;50.888;4.724;2022-12-18T21:27:57;45.63;;;16.15;;
25301;SDS011;13243;50.888;4.724;2022-12-18T21:32:59;43.30;;;17.42;;
25301;SDS011;13243;50.888;4.724;2022-12-18T21:38:01;37.78;;;15.85;;
25301;SDS011;13243;50.888;4.724;2022-12-18T21:43:07;40.22;;;15.80;;
25301;SDS011;13243;50.888;4.724;2022-12-18T21:48:28;40.65;;;16.02;;
25301;SDS011;13243;50.888;4.724;2022-12-18T21:53:30;42.75;;;15.93;;
25301;SDS011;13243;50.888;4.724;2022-12-18T21:58:32;45.60;;;17.10;;
25301;SDS011;13243;50.888;4.724;2022-12-18T22:03:34;42.03;;;14.23;;
25301;SDS011;13243;50.888;4.724;2022-12-18T22:08:35;45.65;;;17.20;;
25301;SDS011;13243;50.888;4.724;2022-12-18T22:13:43;46.65;;;17.73;;
25301;SDS011;13243;50.888;4.724;2022-12-18T22:18:45;50.25;;;17.88;;
25301;SDS011;13243;50.888;4.724;2022-12-18T22:23:51;46.10;;;17.50;;
25301;SDS011;13243;50.888;4.724;2022-12-18T22:28:55;41.88;;;17.25;;
25301;SDS011;13243;50.888;4.724;2022-12-18T22:34:17;42.67;;;16.73;;
25301;SDS011;13243;50.888;4.724;2022-12-18T22:39:24;44.60;;;17.08;;
25301;SDS011;13243;50.888;4.724;2022-12-18T22:44:28;41.10;;;15.38;;
25301;SDS011;13243;50.888;4.724;2022-12-18T22:49:30;39.78;;;15.68;;
25301;SDS011;13243;50.888;4.724;2022-12-18T22:54:34;35.33;;;15.05;;
25301;SDS011;13243;50.888;4.724;2022-12-18T22:59:36;43.13;;;16.27;;
25301;SDS011;13243;50.888;4.724;2022-12-18T23:04:38;42.28;;;15.52;;
25301;SDS011;13243;50.888;4.724;2022-12-18T23:09:39;41.20;;;16.65;;
25301;SDS011;13243;50.888;4.724;2022-12-18T23:14:41;41.17;;;15.43;;
25301;SDS011;13243;50.888;4.724;2022-12-18T23:19:43;40.53;;;15.38;;
25301;SDS011;13243;50.888;4.724;2022-12-18T23:24:49;43.92;;;16.02;;
25301;SDS011;13243;50.888;4.724;2022-12-18T23:29:51;37.83;;;15.88;;
25301;SDS011;13243;50.888;4.724;2022-12-18T23:34:55;48.78;;;16.77;;
25301;SDS011;13243;50.888;4.724;2022-12-18T23:39:57;42.45;;;15.32;;
25301;SDS011;13243;50.888;4.724;2022-12-18T23:44:58;32.35;;;14.18;;
25301;SDS011;13243;50.888;4.724;2022-12-18T23:50:05;36.28;;;14.90;;
25301;SDS011;13243;50.888;4.724;2022-12-18T23:55:07;36.75;;;14.23;;
